sensor_id;sensor_type;location;lat;lon;timestamp;P1;durP1;ratioP1;P2;durP2;ratioP2
79330;SDS011;68797;49.782;19.054;2023-04-26T00:00:43;7.40;;;4.10;;
79330;SDS011;68797;49.782;19.054;2023-04-26T00:03:14;9.07;;;4.68;;
79330;SDS011;68797;49.782;19.054;2023-04-26T00:05:41;10.15;;;4.47;;
79330;SDS011;68797;49.782;19.054;2023-04-26T00:08:08;7.97;;;4.00;;
79330;SDS011;68797;49.782;19.054;2023-04-26T00:10:36;10.85;;;5.05;;
79330;SDS011;68797;49.782;19.054;2023-04-26T00:13:04;11.60;;;4.75;;
79330;SDS011;68797;49.782;19.054;2023-04-26T00:15:34;11.68;;;4.72;;
79330;SDS011;68797;49.782;19.054;2023-04-26T00:18:01;9.45;;;4.60;;
79330;SDS011;68797;49.782;19.054;2023-04-26T00:20:39;9.88;;;4.72;;
79330;SDS011;68797;49.782;19.054;2023-04-26T00:23:06;13.40;;;4.68;;
79330;SDS011;68797;49.782;19.054;2023-04-26T00:25:36;8.85;;;4.38;;
79330;SDS011;68797;49.782;19.054;2023-04-26T00:28:03;11.68;;;4.43;;
79330;SDS011;68797;49.782;19.054;2023-04-26T00:30:32;14.27;;;4.20;;
79330;SDS011;68797;49.782;19.054;2023-04-26T00:33:05;6.53;;;4.15;;
79330;SDS011;68797;49.782;19.054;2023-04-26T00:35:33;10.82;;;4.22;;
79330;SDS011;68797;49.782;19.054;2023-04-26T00:38:00;15.57;;;6.45;;
79330;SDS011;68797;49.782;19.054;2023-04-26T00:40:29;11.13;;;4.43;;
79330;SDS011;68797;49.782;19.054;2023-04-26T00:42:57;9.38;;;4.38;;
79330;SDS011;68797;49.782;19.054;2023-04-26T00:45:27;12.82;;;4.72;;
79330;SDS011;68797;49.782;19.054;2023-04-26T00:47:53;10.27;;;5.43;;
79330;SDS011;68797;49.782;19.054;2023-04-26T00:50:21;15.50;;;5.28;;
79330;SDS011;68797;49.782;19.054;2023-04-26T00:52:48;16.90;;;5.90;;
79330;SDS011;68797;49.782;19.054;2023-04-26T00:55:21;11.43;;;4.63;;
79330;SDS011;68797;49.782;19.054;2023-04-26T00:57:49;13.93;;;5.00;;
79330;SDS011;68797;49.782;19.054;2023-04-26T01:00:17;13.40;;;5.18;;
79330;SDS011;68797;49.782;19.054;2023-04-26T01:02:47;11.20;;;5.10;;
79330;SDS011;68797;49.782;19.054;2023-04-26T01:05:16;13.73;;;5.82;;
79330;SDS011;68797;49.782;19.054;2023-04-26T01:07:45;12.02;;;5.45;;
79330;SDS011;68797;49.782;19.054;2023-04-26T01:10:23;14.73;;;5.97;;
79330;SDS011;68797;49.782;19.054;2023-04-26T01:12:52;11.05;;;5.20;;
79330;SDS011;68797;49.782;19.054;2023-04-26T01:15:22;10.52;;;4.88;;
79330;SDS011;68797;49.782;19.054;2023-04-26T01:17:49;16.25;;;4.85;;
79330;SDS011;68797;49.782;19.054;2023-04-26T01:20:21;12.70;;;6.38;;
79330;SDS011;68797;49.782;19.054;2023-04-26T01:22:52;14.38;;;5.35;;
79330;SDS011;68797;49.782;19.054;2023-04-26T01:25:18;12.50;;;5.43;;
79330;SDS011;68797;49.782;19.054;2023-04-26T01:27:45;11.73;;;4.80;;
79330;SDS011;68797;49.782;19.054;2023-04-26T01:30:13;14.40;;;4.93;;
79330;SDS011;68797;49.782;19.054;2023-04-26T01:32:43;8.95;;;4.43;;
79330;SDS011;68797;49.782;19.054;2023-04-26T01:35:10;10.68;;;5.10;;
79330;SDS011;68797;49.782;19.054;2023-04-26T01:37:40;11.10;;;4.93;;
79330;SDS011;68797;49.782;19.054;2023-04-26T01:40:11;7.65;;;4.13;;
79330;SDS011;68797;49.782;19.054;2023-04-26T01:42:38;10.82;;;4.10;;
79330;SDS011;68797;49.782;19.054;2023-04-26T01:45:06;8.35;;;4.57;;
79330;SDS011;68797;49.782;19.054;2023-04-26T01:48:05;10.32;;;4.53;;
79330;SDS011;68797;49.782;19.054;2023-04-26T01:50:33;8.60;;;4.53;;
79330;SDS011;68797;49.782;19.054;2023-04-26T01:53:02;10.32;;;4.22;;
79330;SDS011;68797;49.782;19.054;2023-04-26T01:55:29;11.15;;;4.72;;
79330;SDS011;68797;49.782;19.054;2023-04-26T01:57:56;12.80;;;4.63;;
79330;SDS011;68797;49.782;19.054;2023-04-26T02:00:25;10.75;;;4.80;;
79330;SDS011;68797;49.782;19.054;2023-04-26T02:02:55;8.07;;;4.20;;
79330;SDS011;68797;49.782;19.054;2023-04-26T02:05:24;11.60;;;4.47;;
79330;SDS011;68797;49.782;19.054;2023-04-26T02:07:52;12.23;;;4.30;;
79330;SDS011;68797;49.782;19.054;2023-04-26T02:10:18;10.75;;;4.53;;
79330;SDS011;68797;49.782;19.054;2023-04-26T02:12:45;8.65;;;4.28;;
79330;SDS011;68797;49.782;19.054;2023-04-26T02:15:12;8.80;;;3.83;;
79330;SDS011;68797;49.782;19.054;2023-04-26T02:17:40;12.88;;;4.72;;
79330;SDS011;68797;49.782;19.054;2023-04-26T02:20:08;9.73;;;4.05;;
79330;SDS011;68797;49.782;19.054;2023-04-26T02:22:38;13.60;;;4.53;;
79330;SDS011;68797;49.782;19.054;2023-04-26T02:25:05;9.73;;;4.00;;
79330;SDS011;68797;49.782;19.054;2023-04-26T02:27:34;11.60;;;4.03;;
79330;SDS011;68797;49.782;19.054;2023-04-26T02:30:02;6.93;;;3.22;;
79330;SDS011;68797;49.782;19.054;2023-04-26T02:32:31;4.80;;;3.22;;
79330;SDS011;68797;49.782;19.054;2023-04-26T02:34:58;9.18;;;3.65;;
79330;SDS011;68797;49.782;19.054;2023-04-26T02:37:27;6.95;;;3.38;;
79330;SDS011;68797;49.782;19.054;2023-04-26T02:39:55;9.10;;;4.38;;
79330;SDS011;68797;49.782;19.054;2023-04-26T02:42:24;9.80;;;3.88;;
79330;SDS011;68797;49.782;19.054;2023-04-26T02:44:52;8.77;;;4.60;;
79330;SDS011;68797;49.782;19.054;2023-04-26T02:47:23;8.02;;;3.65;;
79330;SDS011;68797;49.782;19.054;2023-04-26T02:49:52;12.00;;;4.10;;
79330;SDS011;68797;49.782;19.054;2023-04-26T02:52:20;9.13;;;4.07;;
79330;SDS011;68797;49.782;19.054;2023-04-26T02:54:48;11.00;;;4.20;;
79330;SDS011;68797;49.782;19.054;2023-04-26T02:57:17;7.05;;;3.65;;
79330;SDS011;68797;49.782;19.054;2023-04-26T02:59:47;8.25;;;4.57;;
79330;SDS011;68797;49.782;19.054;2023-04-26T03:02:17;10.23;;;4.25;;
79330;SDS011;68797;49.782;19.054;2023-04-26T03:04:44;11.55;;;4.18;;
79330;SDS011;68797;49.782;19.054;2023-04-26T03:07:13;13.30;;;4.82;;
79330;SDS011;68797;49.782;19.054;2023-04-26T03:09:43;10.60;;;4.68;;
79330;SDS011;68797;49.782;19.054;2023-04-26T03:12:11;9.65;;;4.25;;
79330;SDS011;68797;49.782;19.054;2023-04-26T03:14:37;9.32;;;4.13;;
79330;SDS011;68797;49.782;19.054;2023-04-26T03:17:06;9.95;;;4.45;;
79330;SDS011;68797;49.782;19.054;2023-04-26T03:19:35;7.22;;;4.20;;
79330;SDS011;68797;49.782;19.054;2023-04-26T03:22:05;9.13;;;4.18;;
79330;SDS011;68797;49.782;19.054;2023-04-26T03:24:34;7.82;;;4.03;;
79330;SDS011;68797;49.782;19.054;2023-04-26T03:27:02;9.00;;;3.92;;
79330;SDS011;68797;49.782;19.054;2023-04-26T03:29:28;6.43;;;4.35;;
79330;SDS011;68797;49.782;19.054;2023-04-26T03:31:56;10.40;;;4.63;;
79330;SDS011;68797;49.782;19.054;2023-04-26T03:34:24;8.52;;;4.30;;
79330;SDS011;68797;49.782;19.054;2023-04-26T03:36:54;10.60;;;4.22;;
79330;SDS011;68797;49.782;19.054;2023-04-26T03:41:48;13.00;;;5.15;;
79330;SDS011;68797;49.782;19.054;2023-04-26T03:44:17;13.45;;;5.20;;
79330;SDS011;68797;49.782;19.054;2023-04-26T03:46:45;13.07;;;5.53;;
79330;SDS011;68797;49.782;19.054;2023-04-26T03:49:11;16.73;;;5.40;;
79330;SDS011;68797;49.782;19.054;2023-04-26T03:51:38;7.25;;;4.38;;
79330;SDS011;68797;49.782;19.054;2023-04-26T03:54:05;10.77;;;5.20;;
79330;SDS011;68797;49.782;19.054;2023-04-26T03:56:33;12.23;;;4.57;;
79330;SDS011;68797;49.782;19.054;2023-04-26T03:59:00;7.78;;;4.75;;
79330;SDS011;68797;49.782;19.054;2023-04-26T04:01:27;9.45;;;3.97;;
79330;SDS011;68797;49.782;19.054;2023-04-26T04:03:54;11.07;;;4.30;;
79330;SDS011;68797;49.782;19.054;2023-04-26T04:06:21;13.45;;;5.18;;
79330;SDS011;68797;49.782;19.054;2023-04-26T04:08:49;9.80;;;4.07;;
79330;SDS011;68797;49.782;19.054;2023-04-26T04:11:16;11.23;;;3.92;;
79330;SDS011;68797;49.782;19.054;2023-04-26T04:13:54;7.47;;;4.13;;
79330;SDS011;68797;49.782;19.054;2023-04-26T04:16:21;10.25;;;4.53;;
79330;SDS011;68797;49.782;19.054;2023-04-26T04:18:51;11.57;;;4.40;;
79330;SDS011;68797;49.782;19.054;2023-04-26T04:21:18;10.35;;;4.78;;
79330;SDS011;68797;49.782;19.054;2023-04-26T04:23:45;9.20;;;5.07;;
79330;SDS011;68797;49.782;19.054;2023-04-26T04:26:14;10.80;;;4.45;;
79330;SDS011;68797;49.782;19.054;2023-04-26T04:28:43;9.27;;;4.22;;
79330;SDS011;68797;49.782;19.054;2023-04-26T04:31:16;12.30;;;4.38;;
79330;SDS011;68797;49.782;19.054;2023-04-26T04:33:45;12.95;;;3.88;;
79330;SDS011;68797;49.782;19.054;2023-04-26T04:36:13;11.98;;;3.75;;
79330;SDS011;68797;49.782;19.054;2023-04-26T04:38:50;11.30;;;4.72;;
79330;SDS011;68797;49.782;19.054;2023-04-26T04:41:18;11.43;;;3.88;;
79330;SDS011;68797;49.782;19.054;2023-04-26T04:43:49;8.98;;;4.72;;
79330;SDS011;68797;49.782;19.054;2023-04-26T04:46:18;10.98;;;4.53;;
79330;SDS011;68797;49.782;19.054;2023-04-26T04:48:56;14.68;;;5.10;;
79330;SDS011;68797;49.782;19.054;2023-04-26T04:51:23;8.38;;;4.43;;
79330;SDS011;68797;49.782;19.054;2023-04-26T04:53:50;10.93;;;4.35;;
79330;SDS011;68797;49.782;19.054;2023-04-26T04:56:18;8.25;;;4.78;;
79330;SDS011;68797;49.782;19.054;2023-04-26T04:58:47;8.15;;;3.90;;
79330;SDS011;68797;49.782;19.054;2023-04-26T05:01:13;9.00;;;4.20;;
79330;SDS011;68797;49.782;19.054;2023-04-26T05:03:50;10.13;;;4.45;;
79330;SDS011;68797;49.782;19.054;2023-04-26T05:06:23;9.80;;;4.60;;
79330;SDS011;68797;49.782;19.054;2023-04-26T05:08:51;15.60;;;4.43;;
79330;SDS011;68797;49.782;19.054;2023-04-26T05:11:18;13.48;;;4.47;;
79330;SDS011;68797;49.782;19.054;2023-04-26T05:13:47;10.82;;;4.30;;
79330;SDS011;68797;49.782;19.054;2023-04-26T05:16:16;12.35;;;5.22;;
79330;SDS011;68797;49.782;19.054;2023-04-26T05:21:17;9.73;;;4.53;;
79330;SDS011;68797;49.782;19.054;2023-04-26T05:23:44;9.40;;;4.72;;
79330;SDS011;68797;49.782;19.054;2023-04-26T05:26:14;11.93;;;4.93;;
79330;SDS011;68797;49.782;19.054;2023-04-26T05:29:06;16.63;;;5.72;;
79330;SDS011;68797;49.782;19.054;2023-04-26T05:31:51;12.27;;;5.72;;
79330;SDS011;68797;49.782;19.054;2023-04-26T05:34:33;13.20;;;5.57;;
79330;SDS011;68797;49.782;19.054;2023-04-26T05:37:03;32.00;;;15.20;;
79330;SDS011;68797;49.782;19.054;2023-04-26T05:39:30;23.65;;;13.27;;
79330;SDS011;68797;49.782;19.054;2023-04-26T05:41:57;21.13;;;6.03;;
79330;SDS011;68797;49.782;19.054;2023-04-26T05:44:24;17.17;;;6.00;;
79330;SDS011;68797;49.782;19.054;2023-04-26T05:46:51;35.28;;;14.70;;
79330;SDS011;68797;49.782;19.054;2023-04-26T05:49:18;22.65;;;9.60;;
79330;SDS011;68797;49.782;19.054;2023-04-26T05:51:45;16.42;;;7.75;;
79330;SDS011;68797;49.782;19.054;2023-04-26T05:54:12;12.85;;;6.53;;
79330;SDS011;68797;49.782;19.054;2023-04-26T05:56:39;15.05;;;5.88;;
79330;SDS011;68797;49.782;19.054;2023-04-26T05:59:08;18.58;;;10.25;;
79330;SDS011;68797;49.782;19.054;2023-04-26T06:01:35;11.88;;;5.57;;
79330;SDS011;68797;49.782;19.054;2023-04-26T06:04:04;12.00;;;4.53;;
79330;SDS011;68797;49.782;19.054;2023-04-26T06:06:39;52.83;;;20.40;;
79330;SDS011;68797;49.782;19.054;2023-04-26T06:09:10;24.65;;;10.43;;
79330;SDS011;68797;49.782;19.054;2023-04-26T06:11:36;11.98;;;5.32;;
79330;SDS011;68797;49.782;19.054;2023-04-26T06:14:04;30.92;;;11.55;;
79330;SDS011;68797;49.782;19.054;2023-04-26T06:16:31;34.35;;;17.38;;
79330;SDS011;68797;49.782;19.054;2023-04-26T06:18:58;16.10;;;8.90;;
79330;SDS011;68797;49.782;19.054;2023-04-26T06:21:28;12.02;;;6.65;;
79330;SDS011;68797;49.782;19.054;2023-04-26T06:23:56;6.90;;;4.75;;
79330;SDS011;68797;49.782;19.054;2023-04-26T06:26:26;9.40;;;4.95;;
79330;SDS011;68797;49.782;19.054;2023-04-26T06:28:54;15.93;;;5.63;;
79330;SDS011;68797;49.782;19.054;2023-04-26T06:31:21;59.53;;;21.63;;
79330;SDS011;68797;49.782;19.054;2023-04-26T06:33:50;62.35;;;20.95;;
79330;SDS011;68797;49.782;19.054;2023-04-26T06:36:17;43.17;;;20.08;;
79330;SDS011;68797;49.782;19.054;2023-04-26T06:38:44;90.28;;;30.33;;
79330;SDS011;68797;49.782;19.054;2023-04-26T06:41:11;55.08;;;19.42;;
79330;SDS011;68797;49.782;19.054;2023-04-26T06:43:38;53.85;;;19.05;;
79330;SDS011;68797;49.782;19.054;2023-04-26T06:46:06;11.38;;;4.60;;
79330;SDS011;68797;49.782;19.054;2023-04-26T06:48:36;68.22;;;22.98;;
79330;SDS011;68797;49.782;19.054;2023-04-26T06:51:05;73.32;;;23.17;;
79330;SDS011;68797;49.782;19.054;2023-04-26T06:53:35;16.08;;;6.57;;
79330;SDS011;68797;49.782;19.054;2023-04-26T06:56:02;24.13;;;7.30;;
79330;SDS011;68797;49.782;19.054;2023-04-26T06:58:30;18.23;;;5.88;;
79330;SDS011;68797;49.782;19.054;2023-04-26T07:00:56;43.30;;;14.07;;
79330;SDS011;68797;49.782;19.054;2023-04-26T07:03:23;45.70;;;11.32;;
79330;SDS011;68797;49.782;19.054;2023-04-26T07:05:50;69.18;;;23.67;;
79330;SDS011;68797;49.782;19.054;2023-04-26T07:08:17;43.40;;;16.98;;
79330;SDS011;68797;49.782;19.054;2023-04-26T07:10:43;11.90;;;3.92;;
79330;SDS011;68797;49.782;19.054;2023-04-26T07:13:10;78.32;;;27.33;;
79330;SDS011;68797;49.782;19.054;2023-04-26T07:15:37;17.48;;;6.85;;
79330;SDS011;68797;49.782;19.054;2023-04-26T07:18:05;67.80;;;21.73;;
79330;SDS011;68797;49.782;19.054;2023-04-26T07:20:31;43.33;;;19.05;;
79330;SDS011;68797;49.782;19.054;2023-04-26T07:22:58;74.50;;;22.77;;
79330;SDS011;68797;49.782;19.054;2023-04-26T07:25:26;40.20;;;15.95;;
79330;SDS011;68797;49.782;19.054;2023-04-26T07:27:53;62.97;;;18.77;;
79330;SDS011;68797;49.782;19.054;2023-04-26T07:30:22;18.08;;;4.95;;
79330;SDS011;68797;49.782;19.054;2023-04-26T07:32:52;12.77;;;5.88;;
79330;SDS011;68797;49.782;19.054;2023-04-26T07:35:18;20.58;;;8.45;;
79330;SDS011;68797;49.782;19.054;2023-04-26T07:37:47;16.75;;;6.68;;
79330;SDS011;68797;49.782;19.054;2023-04-26T07:40:13;18.17;;;6.72;;
79330;SDS011;68797;49.782;19.054;2023-04-26T07:42:40;17.02;;;8.57;;
79330;SDS011;68797;49.782;19.054;2023-04-26T07:45:07;18.25;;;7.07;;
79330;SDS011;68797;49.782;19.054;2023-04-26T07:47:34;25.42;;;8.98;;
79330;SDS011;68797;49.782;19.054;2023-04-26T07:52:31;32.50;;;11.68;;
79330;SDS011;68797;49.782;19.054;2023-04-26T07:54:58;30.70;;;10.82;;
79330;SDS011;68797;49.782;19.054;2023-04-26T07:57:24;20.08;;;7.68;;
79330;SDS011;68797;49.782;19.054;2023-04-26T08:02:19;19.65;;;7.88;;
79330;SDS011;68797;49.782;19.054;2023-04-26T08:04:46;29.13;;;10.23;;
79330;SDS011;68797;49.782;19.054;2023-04-26T08:07:21;64.38;;;22.00;;
79330;SDS011;68797;49.782;19.054;2023-04-26T08:09:50;22.33;;;8.52;;
79330;SDS011;68797;49.782;19.054;2023-04-26T08:12:23;28.25;;;11.02;;
79330;SDS011;68797;49.782;19.054;2023-04-26T08:14:50;12.15;;;6.30;;
79330;SDS011;68797;49.782;19.054;2023-04-26T08:17:18;7.90;;;3.50;;
79330;SDS011;68797;49.782;19.054;2023-04-26T08:19:45;8.55;;;3.97;;
79330;SDS011;68797;49.782;19.054;2023-04-26T08:24:38;4.90;;;2.67;;
79330;SDS011;68797;49.782;19.054;2023-04-26T08:27:05;9.15;;;3.70;;
79330;SDS011;68797;49.782;19.054;2023-04-26T08:29:33;6.75;;;3.92;;
79330;SDS011;68797;49.782;19.054;2023-04-26T08:32:04;5.95;;;3.05;;
79330;SDS011;68797;49.782;19.054;2023-04-26T08:34:31;7.25;;;3.83;;
79330;SDS011;68797;49.782;19.054;2023-04-26T08:41:54;5.57;;;2.33;;
79330;SDS011;68797;49.782;19.054;2023-04-26T08:44:24;7.15;;;3.30;;
79330;SDS011;68797;49.782;19.054;2023-04-26T08:46:56;4.05;;;2.38;;
79330;SDS011;68797;49.782;19.054;2023-04-26T08:52:15;5.50;;;3.03;;
79330;SDS011;68797;49.782;19.054;2023-04-26T08:54:49;6.13;;;3.13;;
79330;SDS011;68797;49.782;19.054;2023-04-26T08:57:17;5.05;;;2.60;;
79330;SDS011;68797;49.782;19.054;2023-04-26T08:59:44;7.78;;;3.42;;
79330;SDS011;68797;49.782;19.054;2023-04-26T09:02:13;3.67;;;2.60;;
79330;SDS011;68797;49.782;19.054;2023-04-26T09:04:45;6.32;;;2.80;;
79330;SDS011;68797;49.782;19.054;2023-04-26T09:07:36;4.85;;;2.88;;
79330;SDS011;68797;49.782;19.054;2023-04-26T09:10:10;4.70;;;3.15;;
79330;SDS011;68797;49.782;19.054;2023-04-26T09:12:40;7.22;;;3.33;;
79330;SDS011;68797;49.782;19.054;2023-04-26T09:15:08;3.05;;;2.75;;
79330;SDS011;68797;49.782;19.054;2023-04-26T09:17:38;8.02;;;2.95;;
79330;SDS011;68797;49.782;19.054;2023-04-26T09:20:27;7.93;;;3.20;;
79330;SDS011;68797;49.782;19.054;2023-04-26T09:23:06;9.82;;;4.18;;
79330;SDS011;68797;49.782;19.054;2023-04-26T09:25:35;3.95;;;2.60;;
79330;SDS011;68797;49.782;19.054;2023-04-26T09:28:03;9.60;;;4.30;;
79330;SDS011;68797;49.782;19.054;2023-04-26T09:30:43;7.05;;;3.78;;
79330;SDS011;68797;49.782;19.054;2023-04-26T09:33:13;27.90;;;12.98;;
79330;SDS011;68797;49.782;19.054;2023-04-26T09:35:41;7.15;;;3.83;;
79330;SDS011;68797;49.782;19.054;2023-04-26T09:38:10;10.68;;;4.20;;
79330;SDS011;68797;49.782;19.054;2023-04-26T09:40:44;8.30;;;4.85;;
79330;SDS011;68797;49.782;19.054;2023-04-26T09:43:18;5.35;;;3.00;;
79330;SDS011;68797;49.782;19.054;2023-04-26T09:45:47;5.20;;;2.92;;
79330;SDS011;68797;49.782;19.054;2023-04-26T09:48:34;4.00;;;2.92;;
79330;SDS011;68797;49.782;19.054;2023-04-26T09:53:31;5.85;;;3.15;;
79330;SDS011;68797;49.782;19.054;2023-04-26T09:56:09;5.32;;;2.45;;
79330;SDS011;68797;49.782;19.054;2023-04-26T10:01:24;7.07;;;2.38;;
79330;SDS011;68797;49.782;19.054;2023-04-26T10:03:55;4.90;;;2.42;;
79330;SDS011;68797;49.782;19.054;2023-04-26T10:06:22;6.10;;;2.70;;
79330;SDS011;68797;49.782;19.054;2023-04-26T10:08:50;5.75;;;2.47;;
79330;SDS011;68797;49.782;19.054;2023-04-26T10:11:16;7.10;;;2.30;;
79330;SDS011;68797;49.782;19.054;2023-04-26T10:13:43;2.95;;;1.85;;
79330;SDS011;68797;49.782;19.054;2023-04-26T10:16:11;6.90;;;1.98;;
79330;SDS011;68797;49.782;19.054;2023-04-26T10:18:37;3.58;;;2.40;;
79330;SDS011;68797;49.782;19.054;2023-04-26T10:21:05;5.00;;;1.88;;
79330;SDS011;68797;49.782;19.054;2023-04-26T10:23:37;4.07;;;2.10;;
79330;SDS011;68797;49.782;19.054;2023-04-26T10:26:05;5.60;;;3.00;;
79330;SDS011;68797;49.782;19.054;2023-04-26T10:28:55;4.95;;;2.08;;
79330;SDS011;68797;49.782;19.054;2023-04-26T10:31:24;8.25;;;3.00;;
79330;SDS011;68797;49.782;19.054;2023-04-26T10:34:36;5.15;;;3.00;;
79330;SDS011;68797;49.782;19.054;2023-04-26T10:39:44;3.17;;;1.80;;
79330;SDS011;68797;49.782;19.054;2023-04-26T10:44:50;3.30;;;2.10;;
79330;SDS011;68797;49.782;19.054;2023-04-26T10:47:34;4.45;;;2.10;;
79330;SDS011;68797;49.782;19.054;2023-04-26T10:50:09;2.72;;;1.80;;
79330;SDS011;68797;49.782;19.054;2023-04-26T10:52:37;9.13;;;3.05;;
79330;SDS011;68797;49.782;19.054;2023-04-26T10:55:36;11.13;;;4.40;;
79330;SDS011;68797;49.782;19.054;2023-04-26T11:01:03;6.35;;;3.20;;
79330;SDS011;68797;49.782;19.054;2023-04-26T11:04:01;5.30;;;3.42;;
79330;SDS011;68797;49.782;19.054;2023-04-26T11:06:54;4.93;;;2.50;;
79330;SDS011;68797;49.782;19.054;2023-04-26T11:09:37;3.88;;;2.40;;
79330;SDS011;68797;49.782;19.054;2023-04-26T11:12:20;7.90;;;2.78;;
79330;SDS011;68797;49.782;19.054;2023-04-26T11:14:49;9.45;;;2.97;;
79330;SDS011;68797;49.782;19.054;2023-04-26T11:17:15;3.47;;;2.20;;
79330;SDS011;68797;49.782;19.054;2023-04-26T11:19:45;5.03;;;2.33;;
79330;SDS011;68797;49.782;19.054;2023-04-26T11:22:13;8.30;;;3.47;;
79330;SDS011;68797;49.782;19.054;2023-04-26T11:24:39;4.93;;;2.00;;
79330;SDS011;68797;49.782;19.054;2023-04-26T11:27:10;7.28;;;2.10;;
79330;SDS011;68797;49.782;19.054;2023-04-26T11:29:39;4.78;;;2.10;;
79330;SDS011;68797;49.782;19.054;2023-04-26T11:32:06;4.38;;;2.35;;
79330;SDS011;68797;49.782;19.054;2023-04-26T11:34:33;3.58;;;2.30;;
79330;SDS011;68797;49.782;19.054;2023-04-26T11:37:01;5.65;;;2.17;;
79330;SDS011;68797;49.782;19.054;2023-04-26T11:39:30;3.10;;;1.90;;
79330;SDS011;68797;49.782;19.054;2023-04-26T11:42:11;4.60;;;2.35;;
79330;SDS011;68797;49.782;19.054;2023-04-26T11:44:39;11.25;;;2.90;;
79330;SDS011;68797;49.782;19.054;2023-04-26T11:47:08;5.35;;;2.10;;
79330;SDS011;68797;49.782;19.054;2023-04-26T11:52:03;2.40;;;2.15;;
79330;SDS011;68797;49.782;19.054;2023-04-26T11:54:32;4.60;;;2.28;;
79330;SDS011;68797;49.782;19.054;2023-04-26T11:57:11;3.20;;;1.90;;
79330;SDS011;68797;49.782;19.054;2023-04-26T11:59:39;6.55;;;1.70;;
79330;SDS011;68797;49.782;19.054;2023-04-26T12:02:07;2.92;;;1.60;;
79330;SDS011;68797;49.782;19.054;2023-04-26T12:04:36;3.60;;;2.55;;
79330;SDS011;68797;49.782;19.054;2023-04-26T12:07:05;5.70;;;2.47;;
79330;SDS011;68797;49.782;19.054;2023-04-26T12:09:32;11.63;;;2.63;;
79330;SDS011;68797;49.782;19.054;2023-04-26T12:12:03;6.97;;;1.90;;
79330;SDS011;68797;49.782;19.054;2023-04-26T12:14:35;7.25;;;2.70;;
79330;SDS011;68797;49.782;19.054;2023-04-26T12:17:04;4.18;;;1.95;;
79330;SDS011;68797;49.782;19.054;2023-04-26T12:19:33;3.92;;;2.15;;
79330;SDS011;68797;49.782;19.054;2023-04-26T12:22:04;6.07;;;2.35;;
79330;SDS011;68797;49.782;19.054;2023-04-26T12:24:33;5.10;;;2.38;;
79330;SDS011;68797;49.782;19.054;2023-04-26T12:27:04;4.30;;;1.65;;
79330;SDS011;68797;49.782;19.054;2023-04-26T12:29:33;5.35;;;1.90;;
79330;SDS011;68797;49.782;19.054;2023-04-26T12:32:01;4.25;;;2.30;;
79330;SDS011;68797;49.782;19.054;2023-04-26T12:34:29;6.05;;;2.30;;
79330;SDS011;68797;49.782;19.054;2023-04-26T12:36:57;2.60;;;1.27;;
79330;SDS011;68797;49.782;19.054;2023-04-26T12:39:23;3.90;;;1.95;;
79330;SDS011;68797;49.782;19.054;2023-04-26T12:41:49;2.75;;;1.80;;
79330;SDS011;68797;49.782;19.054;2023-04-26T12:44:17;6.30;;;1.85;;
79330;SDS011;68797;49.782;19.054;2023-04-26T12:46:44;2.03;;;1.50;;
79330;SDS011;68797;49.782;19.054;2023-04-26T12:49:11;3.13;;;1.58;;
79330;SDS011;68797;49.782;19.054;2023-04-26T12:51:39;6.35;;;1.70;;
79330;SDS011;68797;49.782;19.054;2023-04-26T12:54:07;2.22;;;1.23;;
79330;SDS011;68797;49.782;19.054;2023-04-26T12:56:35;2.90;;;1.50;;
79330;SDS011;68797;49.782;19.054;2023-04-26T12:59:09;3.00;;;1.42;;
79330;SDS011;68797;49.782;19.054;2023-04-26T13:01:37;6.00;;;1.75;;
79330;SDS011;68797;49.782;19.054;2023-04-26T13:04:04;2.63;;;1.70;;
79330;SDS011;68797;49.782;19.054;2023-04-26T13:06:31;3.60;;;1.90;;
79330;SDS011;68797;49.782;19.054;2023-04-26T13:08:58;4.72;;;1.80;;
79330;SDS011;68797;49.782;19.054;2023-04-26T13:11:25;4.68;;;1.70;;
79330;SDS011;68797;49.782;19.054;2023-04-26T13:13:51;2.60;;;1.88;;
79330;SDS011;68797;49.782;19.054;2023-04-26T13:18:47;4.18;;;1.98;;
79330;SDS011;68797;49.782;19.054;2023-04-26T13:21:14;5.07;;;1.88;;
79330;SDS011;68797;49.782;19.054;2023-04-26T13:23:40;6.80;;;2.05;;
79330;SDS011;68797;49.782;19.054;2023-04-26T13:26:08;6.88;;;2.30;;
79330;SDS011;68797;49.782;19.054;2023-04-26T13:28:37;5.82;;;2.50;;
79330;SDS011;68797;49.782;19.054;2023-04-26T13:33:31;5.50;;;2.10;;
79330;SDS011;68797;49.782;19.054;2023-04-26T13:36:00;5.18;;;2.00;;
79330;SDS011;68797;49.782;19.054;2023-04-26T13:38:27;4.68;;;2.10;;
79330;SDS011;68797;49.782;19.054;2023-04-26T13:40:55;5.18;;;2.20;;
79330;SDS011;68797;49.782;19.054;2023-04-26T13:43:21;4.78;;;2.42;;
79330;SDS011;68797;49.782;19.054;2023-04-26T13:45:50;6.22;;;2.20;;
79330;SDS011;68797;49.782;19.054;2023-04-26T13:48:16;3.95;;;2.58;;
79330;SDS011;68797;49.782;19.054;2023-04-26T13:50:43;3.55;;;2.22;;
79330;SDS011;68797;49.782;19.054;2023-04-26T13:53:10;4.03;;;1.90;;
79330;SDS011;68797;49.782;19.054;2023-04-26T13:58:03;5.18;;;2.33;;
79330;SDS011;68797;49.782;19.054;2023-04-26T14:00:30;6.65;;;2.15;;
79330;SDS011;68797;49.782;19.054;2023-04-26T14:02:57;5.85;;;2.53;;
79330;SDS011;68797;49.782;19.054;2023-04-26T14:05:24;5.72;;;2.50;;
79330;SDS011;68797;49.782;19.054;2023-04-26T14:07:51;3.28;;;2.22;;
79330;SDS011;68797;49.782;19.054;2023-04-26T14:10:18;4.95;;;2.78;;
79330;SDS011;68797;49.782;19.054;2023-04-26T14:12:45;3.70;;;1.85;;
79330;SDS011;68797;49.782;19.054;2023-04-26T14:15:13;6.30;;;2.22;;
79330;SDS011;68797;49.782;19.054;2023-04-26T14:17:39;6.20;;;2.50;;
79330;SDS011;68797;49.782;19.054;2023-04-26T14:20:06;4.15;;;2.25;;
79330;SDS011;68797;49.782;19.054;2023-04-26T14:22:36;5.35;;;3.13;;
79330;SDS011;68797;49.782;19.054;2023-04-26T14:25:03;3.80;;;2.28;;
79330;SDS011;68797;49.782;19.054;2023-04-26T14:27:30;5.10;;;2.80;;
79330;SDS011;68797;49.782;19.054;2023-04-26T14:29:57;5.63;;;2.78;;
79330;SDS011;68797;49.782;19.054;2023-04-26T14:32:23;5.47;;;2.30;;
79330;SDS011;68797;49.782;19.054;2023-04-26T14:34:49;4.30;;;2.38;;
79330;SDS011;68797;49.782;19.054;2023-04-26T14:37:17;4.88;;;1.98;;
79330;SDS011;68797;49.782;19.054;2023-04-26T14:39:48;4.20;;;2.13;;
79330;SDS011;68797;49.782;19.054;2023-04-26T14:42:15;4.78;;;3.10;;
79330;SDS011;68797;49.782;19.054;2023-04-26T14:44:41;7.63;;;2.78;;
79330;SDS011;68797;49.782;19.054;2023-04-26T14:47:10;5.80;;;2.10;;
79330;SDS011;68797;49.782;19.054;2023-04-26T14:49:36;4.55;;;2.17;;
79330;SDS011;68797;49.782;19.054;2023-04-26T14:52:04;6.43;;;2.28;;
79330;SDS011;68797;49.782;19.054;2023-04-26T14:54:35;4.25;;;2.30;;
79330;SDS011;68797;49.782;19.054;2023-04-26T14:57:05;3.75;;;1.88;;
79330;SDS011;68797;49.782;19.054;2023-04-26T14:59:33;7.30;;;2.53;;
79330;SDS011;68797;49.782;19.054;2023-04-26T15:02:02;3.53;;;2.22;;
79330;SDS011;68797;49.782;19.054;2023-04-26T15:04:29;3.67;;;2.10;;
79330;SDS011;68797;49.782;19.054;2023-04-26T15:06:57;6.47;;;2.28;;
79330;SDS011;68797;49.782;19.054;2023-04-26T15:09:24;5.25;;;2.08;;
79330;SDS011;68797;49.782;19.054;2023-04-26T15:11:51;5.10;;;2.22;;
79330;SDS011;68797;49.782;19.054;2023-04-26T15:14:19;5.63;;;2.40;;
79330;SDS011;68797;49.782;19.054;2023-04-26T15:16:46;5.18;;;2.22;;
79330;SDS011;68797;49.782;19.054;2023-04-26T15:19:12;6.50;;;2.22;;
79330;SDS011;68797;49.782;19.054;2023-04-26T15:21:39;6.28;;;2.85;;
79330;SDS011;68797;49.782;19.054;2023-04-26T15:24:05;9.80;;;4.63;;